Date,TemperatureHighF,TemperatureAvgF,TemperatureLowF,DewpointHighF,DewpointAvgF,DewpointLowF,HumidityHigh,HumidityAvg,HumidityLow,PressureMaxIn,PressureMinIn,WindSpeedMaxMPH,WindSpeedAvgMPH,GustSpeedMaxMPH,PrecipitationSumIn
2013-6-1,89,79,66,73,67,62,85,67,54,29.95,29.80,12,2,18,0.00
2013-6-2,86,76,68,73,69,65,91,78,62,29.82,29.66,13,4,21,0.05
2013-6-3,70,65,55,66,54,39,93,71,45,29.93,29.78,16,6,26,0.01
2013-6-4,73,61,50,50,44,41,75,57,39,30.12,29.93,17,7,31,0.00
2013-6-5,75,62,48,51,47,42,88,59,39,30.21,30.08,8,2,14,0.00
2013-6-6,72,62,52,57,52,48,94,72,47,30.13,30.02,12,2,23,0.51
2013-6-7,58,57,55,57,55,54,95,94,92,30.03,29.79,8,1,15,0.54
2013-6-8,72,62,54,62,57,53,95,84,69,30.04,29.72,15,5,29,0.20
2013-6-9,77,66,53,60,56,51,95,74,49,30.17,30.04,17,2,20,0.00
2013-6-10,66,61,54,63,58,52,95,92,84,30.17,29.87,5,0,8,0.55
2013-6-11,69,63,59,67,60,56,96,92,82,29.87,29.55,13,3,27,1.25
2013-6-12,74,64,57,58,55,53,90,73,50,29.84,29.64,16,7,30,0.00
2013-6-13,58,56,53,57,55,51,96,94,90,29.82,29.66,8,1,12,1.30
2013-6-14,76,63,54,63,57,53,96,81,53,29.86,29.69,12,3,20,0.02
2013-6-15,78,66,53,57,50,45,95,62,34,29.98,29.86,20,4,26,0.00
2013-6-16,70,63,51,63,56,46,89,77,65,29.96,29.69,9,2,21,0.00
2013-6-17,82,68,58,70,62,56,96,84,51,29.89,29.77,13,1,31,0.22
2013-6-18,66,60,53,59,56,52,96,85,70,29.96,29.88,17,4,21,0.02
2013-6-19,73,61,49,52,49,45,95,68,41,30.17,29.95,10,3,16,0.00
2013-6-20,78,64,47,59,52,45,95,69,42,30.27,30.16,9,1,12,0.00
2013-6-21,84,71,57,61,56,49,92,64,33,30.25,30.18,10,1,15,0.00
2013-6-22,83,73,64,67,63,59,89,71,54,30.20,30.05,8,3,14,0.00
2013-6-23,90,79,70,74,68,62,79,69,54,30.10,29.94,13,4,20,0.00
2013-6-24,91,76,67,74,70,65,95,81,54,30.01,29.90,10,2,23,0.38
2013-6-25,88,73,63,74,69,62,96,86,59,29.97,29.73,13,1,30,0.36
2013-6-26,82,74,70,73,69,67,96,87,68,29.80,29.74,8,1,12,0.03
2013-6-27,97,76,65,71,69,64,96,81,44,29.80,29.59,7,1,10,0.03
2013-6-28,79,73,68,71,68,65,96,86,65,29.59,29.35,15,4,27,1.51
2013-6-29,81,73,67,71,67,65,97,84,64,29.67,29.46,10,1,16,0.11
2013-6-30,84,72,64,72,68,62,96,87,65,29.90,29.67,7,1,16,0.28